createdAt,value
2023-05-16T00:00:42.356Z,9.46
2023-05-16T00:03:12.176Z,9.46
2023-05-16T00:05:41.440Z,9.40
2023-05-16T00:08:09.066Z,9.39
2023-05-16T00:10:37.154Z,9.39
2023-05-16T00:13:04.776Z,9.41
2023-05-16T00:15:32.439Z,9.41
2023-05-16T00:18:00.420Z,9.38
2023-05-16T00:20:28.880Z,9.37
2023-05-16T00:23:01.077Z,9.37
2023-05-16T00:25:29.077Z,9.38
2023-05-16T00:27:56.693Z,9.39
2023-05-16T00:30:24.355Z,9.39
2023-05-16T00:32:52.088Z,9.39
2023-05-16T00:35:19.898Z,9.39
2023-05-16T00:37:47.508Z,9.39
2023-05-16T00:40:16.477Z,9.37
2023-05-16T00:42:44.728Z,9.36
2023-05-16T00:45:12.808Z,9.37
2023-05-16T00:47:40.475Z,9.39
2023-05-16T00:50:08.674Z,9.37
2023-05-16T00:52:36.334Z,9.39
2023-05-16T00:55:04.329Z,9.41
2023-05-16T00:57:33.389Z,9.37
2023-05-16T01:00:01.038Z,9.36
2023-05-16T01:02:30.105Z,9.35
2023-05-16T01:04:57.910Z,9.27
2023-05-16T01:07:25.510Z,9.24
2023-05-16T01:09:53.449Z,9.23
2023-05-16T01:12:25.370Z,9.25
2023-05-16T01:14:58.058Z,9.24
2023-05-16T01:17:31.162Z,9.25
2023-05-16T01:20:06.426Z,9.24
2023-05-16T01:22:54.364Z,9.24
2023-05-16T01:25:33.571Z,9.24
2023-05-16T01:28:03.177Z,9.17
2023-05-16T01:30:35.104Z,9.13
2023-05-16T01:33:02.796Z,9.13
2023-05-16T01:35:31.010Z,9.14
2023-05-16T01:38:04.148Z,9.11
2023-05-16T01:40:37.855Z,9.13
2023-05-16T01:43:12.297Z,9.14
2023-05-16T01:45:43.000Z,9.16
2023-05-16T01:48:14.165Z,9.15
2023-05-16T01:50:44.816Z,9.06
2023-05-16T01:53:16.274Z,8.99
2023-05-16T01:55:45.896Z,8.96
2023-05-16T01:58:16.111Z,8.98
2023-05-16T02:00:44.789Z,8.93
2023-05-16T02:03:12.631Z,8.90
2023-05-16T02:05:40.464Z,8.88
2023-05-16T02:08:09.673Z,8.87
2023-05-16T02:10:37.289Z,8.87
2023-05-16T02:13:04.853Z,8.86
2023-05-16T02:15:33.886Z,8.86
2023-05-16T02:18:01.525Z,8.86
2023-05-16T02:20:29.382Z,8.84
2023-05-16T02:22:56.976Z,8.83
2023-05-16T02:25:25.760Z,8.82
2023-05-16T02:27:53.605Z,8.84
2023-05-16T02:30:21.298Z,8.82
2023-05-16T02:32:50.447Z,8.80
2023-05-16T02:35:18.599Z,8.76
2023-05-16T02:37:46.489Z,8.76
2023-05-16T02:40:15.331Z,8.75
2023-05-16T02:42:42.916Z,8.69
2023-05-16T02:45:11.446Z,8.68
2023-05-16T02:47:39.119Z,8.69
2023-05-16T02:50:09.001Z,8.71
2023-05-16T02:52:36.573Z,8.73
2023-05-16T02:55:20.989Z,8.72
2023-05-16T02:57:52.014Z,8.67
2023-05-16T03:00:20.513Z,8.64
2023-05-16T03:02:48.305Z,8.61
2023-05-16T03:05:17.610Z,8.63
2023-05-16T03:07:45.382Z,8.63
2023-05-16T03:10:13.015Z,8.64
2023-05-16T03:12:40.728Z,8.65
2023-05-16T03:15:09.724Z,8.68
2023-05-16T03:17:37.386Z,8.70
2023-05-16T03:20:09.563Z,8.70
2023-05-16T03:22:38.406Z,8.69
2023-05-16T03:25:07.918Z,8.67
2023-05-16T03:27:35.589Z,8.64
2023-05-16T03:30:03.464Z,8.63
2023-05-16T03:32:31.123Z,8.63
2023-05-16T03:34:58.758Z,8.64
2023-05-16T03:37:26.655Z,8.66
2023-05-16T03:39:56.017Z,8.65
2023-05-16T03:42:23.627Z,8.67
2023-05-16T03:44:51.249Z,8.67
2023-05-16T03:47:18.935Z,8.66
2023-05-16T03:49:46.619Z,8.64
2023-05-16T03:52:14.333Z,8.59
2023-05-16T03:54:41.956Z,8.52
2023-05-16T03:57:10.912Z,8.47
2023-05-16T03:59:39.184Z,8.47
2023-05-16T04:02:08.005Z,8.49
2023-05-16T04:04:35.764Z,8.47
2023-05-16T04:07:03.633Z,8.47
2023-05-16T04:09:31.541Z,8.47
2023-05-16T04:12:01.859Z,8.46
2023-05-16T04:14:30.938Z,8.47
2023-05-16T04:16:58.780Z,8.49
2023-05-16T04:19:26.496Z,8.51
2023-05-16T04:21:54.284Z,8.56
2023-05-16T04:24:26.266Z,8.62
2023-05-16T04:26:55.002Z,8.66
2023-05-16T04:29:23.501Z,8.70
2023-05-16T04:32:02.495Z,8.73
2023-05-16T04:34:30.778Z,8.78
2023-05-16T04:36:58.402Z,8.83
2023-05-16T04:39:26.101Z,8.88
2023-05-16T04:41:54.665Z,8.95
2023-05-16T04:44:22.284Z,8.99
2023-05-16T04:46:49.944Z,9.03
2023-05-16T04:49:19.071Z,9.08
2023-05-16T04:51:48.018Z,9.13
2023-05-16T04:54:15.815Z,9.12
2023-05-16T04:56:43.495Z,9.15
2023-05-16T04:59:11.150Z,9.19
2023-05-16T05:01:39.746Z,9.24
2023-05-16T05:04:07.560Z,9.27
2023-05-16T05:06:36.558Z,9.33
2023-05-16T05:09:05.792Z,9.38
2023-05-16T05:11:33.482Z,9.43
2023-05-16T05:14:01.091Z,9.42
2023-05-16T05:16:28.987Z,9.45
2023-05-16T05:18:56.910Z,9.41
2023-05-16T05:21:25.447Z,9.41
2023-05-16T05:23:54.457Z,9.32
2023-05-16T05:26:22.374Z,9.31
2023-05-16T05:29:01.077Z,9.42
2023-05-16T05:31:33.771Z,9.51
2023-05-16T05:34:01.532Z,9.62
2023-05-16T05:36:29.182Z,9.62
2023-05-16T05:38:58.621Z,9.69
2023-05-16T05:41:26.331Z,9.78
2023-05-16T05:43:53.979Z,9.81
2023-05-16T05:46:21.712Z,9.85
2023-05-16T05:48:49.434Z,9.85
2023-05-16T05:51:17.716Z,9.84
2023-05-16T05:53:45.499Z,9.93
2023-05-16T05:56:14.490Z,10.02
2023-05-16T05:58:42.516Z,10.07
2023-05-16T06:01:11.527Z,10.10
2023-05-16T06:03:39.276Z,10.11
2023-05-16T06:06:07.532Z,10.01
2023-05-16T06:08:35.200Z,9.98
2023-05-16T06:11:02.856Z,10.01
2023-05-16T06:13:31.845Z,10.01
2023-05-16T06:15:59.547Z,10.12
2023-05-16T06:18:27.647Z,10.08
2023-05-16T06:20:55.254Z,10.15
2023-05-16T06:23:22.968Z,10.28
2023-05-16T06:25:51.319Z,10.31
2023-05-16T06:28:18.927Z,10.26
2023-05-16T06:30:48.145Z,10.34
2023-05-16T06:33:15.904Z,10.45
2023-05-16T06:35:43.531Z,10.36
2023-05-16T06:38:11.134Z,10.37
2023-05-16T06:40:38.820Z,10.44
2023-05-16T06:43:06.474Z,10.47
2023-05-16T06:45:34.434Z,10.47
2023-05-16T06:48:03.508Z,10.45
2023-05-16T06:50:31.229Z,10.48
2023-05-16T06:52:58.952Z,10.62
2023-05-16T06:55:26.867Z,10.61
2023-05-16T06:57:54.705Z,10.66
2023-05-16T07:00:23.052Z,10.60
2023-05-16T07:02:50.795Z,10.54
2023-05-16T07:05:20.175Z,10.64
2023-05-16T07:07:49.481Z,10.63
2023-05-16T07:10:17.166Z,10.61
2023-05-16T07:12:44.841Z,10.56
2023-05-16T07:15:13.094Z,10.67
2023-05-16T07:17:40.775Z,10.83
2023-05-16T07:20:13.394Z,10.95
2023-05-16T07:22:42.425Z,10.98
2023-05-16T07:25:12.701Z,11.08
2023-05-16T07:27:41.715Z,11.07
2023-05-16T07:30:10.861Z,11.13
2023-05-16T07:32:38.959Z,11.29
2023-05-16T07:35:07.412Z,11.43
2023-05-16T07:37:35.247Z,11.48
2023-05-16T07:40:04.661Z,11.57
2023-05-16T07:42:32.449Z,11.60
2023-05-16T07:45:00.125Z,11.66
2023-05-16T07:47:27.782Z,11.49
2023-05-16T07:49:55.533Z,11.53
2023-05-16T07:52:23.265Z,11.62
2023-05-16T07:54:50.932Z,11.67
2023-05-16T07:57:20.886Z,11.34
2023-05-16T07:59:49.392Z,11.30
2023-05-16T08:02:17.177Z,11.26
2023-05-16T08:04:44.850Z,11.33
2023-05-16T08:07:12.651Z,11.39
2023-05-16T08:09:40.385Z,11.46
2023-05-16T08:12:09.132Z,11.46
2023-05-16T08:14:38.285Z,11.48
2023-05-16T08:17:06.351Z,11.38
2023-05-16T08:19:34.024Z,11.38
2023-05-16T08:22:02.871Z,11.43
2023-05-16T08:24:30.714Z,11.48
2023-05-16T08:26:58.414Z,11.37
2023-05-16T08:29:26.541Z,11.24
2023-05-16T08:31:55.544Z,11.32
2023-05-16T08:34:23.206Z,11.31
2023-05-16T08:36:50.900Z,11.32
2023-05-16T08:39:18.643Z,11.24
2023-05-16T08:41:46.321Z,11.09
2023-05-16T08:44:21.192Z,11.07
2023-05-16T08:46:52.414Z,11.07
2023-05-16T08:49:22.111Z,11.19
2023-05-16T08:51:50.474Z,11.20
2023-05-16T08:54:18.138Z,11.22
2023-05-16T08:56:46.807Z,11.12
2023-05-16T08:59:14.707Z,11.06
2023-05-16T09:01:42.713Z,10.88
2023-05-16T09:04:10.845Z,10.88
2023-05-16T09:06:39.831Z,11.01
2023-05-16T09:09:09.453Z,11.13
2023-05-16T09:11:37.349Z,11.10
2023-05-16T09:14:05.655Z,11.04
2023-05-16T09:16:33.357Z,11.10
2023-05-16T09:19:02.322Z,11.24
2023-05-16T09:21:31.886Z,11.31
2023-05-16T09:24:05.916Z,11.28
2023-05-16T09:26:34.285Z,11.25
2023-05-16T09:29:02.303Z,11.31
2023-05-16T09:31:36.782Z,11.26
2023-05-16T09:34:05.120Z,10.97
2023-05-16T09:36:33.440Z,11.03
2023-05-16T09:39:01.850Z,11.12
2023-05-16T09:41:34.266Z,11.17
2023-05-16T09:44:05.174Z,11.21
2023-05-16T09:46:35.376Z,10.89
2023-05-16T09:49:03.893Z,11.08
2023-05-16T09:51:31.977Z,11.21
2023-05-16T09:53:59.769Z,11.34
2023-05-16T09:56:27.460Z,11.23
2023-05-16T09:58:56.593Z,11.26
2023-05-16T10:01:24.861Z,11.35
2023-05-16T10:03:52.829Z,11.41
2023-05-16T10:06:20.743Z,11.46
2023-05-16T10:08:48.927Z,11.42
2023-05-16T10:11:17.888Z,11.41
2023-05-16T10:13:50.396Z,11.42
2023-05-16T10:16:19.952Z,11.35
2023-05-16T10:18:48.037Z,11.44
2023-05-16T10:21:16.602Z,11.45
2023-05-16T10:23:45.342Z,11.53
2023-05-16T10:26:14.538Z,11.50
2023-05-16T10:28:42.919Z,11.42
2023-05-16T10:31:12.018Z,11.39
2023-05-16T10:33:41.366Z,11.28
2023-05-16T10:36:09.878Z,11.21
2023-05-16T10:38:37.826Z,10.81
2023-05-16T10:41:06.420Z,10.91
2023-05-16T10:43:34.175Z,10.90
2023-05-16T10:46:04.919Z,10.84
2023-05-16T10:48:33.731Z,10.85
2023-05-16T10:51:04.155Z,10.95
2023-05-16T10:53:33.491Z,10.94
2023-05-16T10:56:12.020Z,10.96
2023-05-16T10:58:48.047Z,11.07
2023-05-16T11:01:19.653Z,11.24
2023-05-16T11:04:11.069Z,11.37
2023-05-16T11:06:52.365Z,11.32
2023-05-16T11:09:28.193Z,11.38
2023-05-16T11:12:02.719Z,11.46
2023-05-16T11:14:37.531Z,11.49
2023-05-16T11:17:09.379Z,11.44
2023-05-16T11:19:41.397Z,11.44
2023-05-16T11:22:17.050Z,11.34
2023-05-16T11:24:53.076Z,11.34
2023-05-16T11:27:25.713Z,11.32
2023-05-16T11:29:53.695Z,11.31
2023-05-16T11:32:22.999Z,11.32
2023-05-16T11:34:51.185Z,11.29
2023-05-16T11:37:21.017Z,11.33
2023-05-16T11:39:48.942Z,11.30
2023-05-16T11:42:17.933Z,11.26
2023-05-16T11:44:45.821Z,11.33
2023-05-16T11:47:13.668Z,11.31
2023-05-16T11:49:41.450Z,11.38
2023-05-16T11:52:09.629Z,11.49
2023-05-16T11:54:38.717Z,11.37
2023-05-16T11:57:06.881Z,11.34
2023-05-16T11:59:34.709Z,11.31
2023-05-16T12:02:05.633Z,11.49
2023-05-16T12:04:33.503Z,11.41
2023-05-16T12:07:02.539Z,11.49
2023-05-16T12:09:30.178Z,11.52
2023-05-16T12:11:59.182Z,11.60
2023-05-16T12:14:27.095Z,11.64
2023-05-16T12:16:55.301Z,11.71
2023-05-16T12:19:23.241Z,11.79
2023-05-16T12:21:54.295Z,11.86
2023-05-16T12:24:22.226Z,11.84
2023-05-16T12:26:49.965Z,11.83
2023-05-16T12:29:25.132Z,11.86
2023-05-16T12:31:54.754Z,11.86
2023-05-16T12:34:23.397Z,11.67
2023-05-16T12:36:54.657Z,11.47
2023-05-16T12:39:23.004Z,11.22
2023-05-16T12:41:50.684Z,11.23
2023-05-16T12:44:20.573Z,11.29
2023-05-16T12:46:51.416Z,11.39
2023-05-16T12:49:21.346Z,11.55
2023-05-16T12:51:52.585Z,11.56
2023-05-16T12:54:22.799Z,11.56
2023-05-16T12:56:50.568Z,11.66
2023-05-16T12:59:20.232Z,11.67
2023-05-16T13:01:48.033Z,11.67
2023-05-16T13:04:19.123Z,11.80
2023-05-16T13:06:58.610Z,11.84
2023-05-16T13:09:32.015Z,11.66
2023-05-16T13:12:00.818Z,11.61
2023-05-16T13:14:31.112Z,11.70
2023-05-16T13:16:58.860Z,11.70
2023-05-16T13:19:26.615Z,11.82
2023-05-16T13:21:54.487Z,11.96
2023-05-16T13:24:22.281Z,12.13
2023-05-16T13:26:49.989Z,12.25
2023-05-16T13:29:17.756Z,12.28
2023-05-16T13:31:46.849Z,12.33
2023-05-16T13:34:14.499Z,12.30
2023-05-16T13:39:18.404Z,12.12
2023-05-16T13:41:48.058Z,12.15
2023-05-16T13:44:16.669Z,12.09
2023-05-16T13:46:45.979Z,11.58
2023-05-16T13:49:13.680Z,11.07
2023-05-16T13:51:41.363Z,10.78
2023-05-16T13:54:09.130Z,10.83
2023-05-16T13:56:36.812Z,10.93
2023-05-16T13:59:07.217Z,10.86
2023-05-16T14:01:36.447Z,10.70
2023-05-16T14:04:06.041Z,10.81
2023-05-16T14:06:34.175Z,10.88
2023-05-16T14:09:02.012Z,10.83
2023-05-16T14:11:29.817Z,10.70
2023-05-16T14:13:57.774Z,10.79
2023-05-16T14:16:25.922Z,10.76
2023-05-16T14:18:53.707Z,10.74
2023-05-16T14:21:22.785Z,10.79
2023-05-16T14:23:50.450Z,10.93
2023-05-16T14:26:22.400Z,10.99
2023-05-16T14:28:52.518Z,10.85
2023-05-16T14:31:20.224Z,10.94
2023-05-16T14:33:47.945Z,10.81
2023-05-16T14:36:16.155Z,10.84
2023-05-16T14:38:45.170Z,10.90
2023-05-16T14:41:12.830Z,10.91
2023-05-16T14:43:40.472Z,10.99
2023-05-16T14:46:08.258Z,11.01
2023-05-16T14:48:35.972Z,10.92
2023-05-16T14:51:04.117Z,10.92
2023-05-16T14:53:31.764Z,10.82
2023-05-16T14:56:02.721Z,10.84
2023-05-16T14:58:30.717Z,10.74
2023-05-16T15:00:58.588Z,10.73
2023-05-16T15:03:26.467Z,10.70
2023-05-16T15:05:54.690Z,10.71
2023-05-16T15:08:22.517Z,10.56
2023-05-16T15:10:50.174Z,10.56
2023-05-16T15:13:19.450Z,10.51
2023-05-16T15:15:47.102Z,10.50
2023-05-16T15:18:14.815Z,10.54
2023-05-16T15:20:42.425Z,10.57
2023-05-16T15:23:10.118Z,10.57
2023-05-16T15:25:38.090Z,10.60
2023-05-16T15:28:06.227Z,10.69
2023-05-16T15:30:35.229Z,10.77
2023-05-16T15:33:02.949Z,10.79
2023-05-16T15:35:30.870Z,10.83
2023-05-16T15:37:59.802Z,10.72
2023-05-16T15:40:27.621Z,10.73
2023-05-16T15:42:55.424Z,10.69
2023-05-16T15:45:23.083Z,10.73
2023-05-16T15:47:52.158Z,10.74
2023-05-16T15:50:19.857Z,10.73
2023-05-16T15:52:47.516Z,10.72
2023-05-16T15:55:15.242Z,10.73
2023-05-16T15:57:44.071Z,10.78
2023-05-16T16:00:12.912Z,10.80
2023-05-16T16:02:42.360Z,10.80
2023-05-16T16:05:11.627Z,10.86
2023-05-16T16:07:39.316Z,10.81
2023-05-16T16:10:08.277Z,10.80
2023-05-16T16:12:37.084Z,10.82
2023-05-16T16:15:06.500Z,10.81
2023-05-16T16:17:34.410Z,10.76
2023-05-16T16:20:02.097Z,10.71
2023-05-16T16:22:31.305Z,10.74
2023-05-16T16:24:58.961Z,10.79
2023-05-16T16:27:26.620Z,10.82
2023-05-16T16:29:54.281Z,10.78
2023-05-16T16:32:22.071Z,10.85
2023-05-16T16:34:50.210Z,10.82
2023-05-16T16:37:17.819Z,10.80
2023-05-16T16:39:46.825Z,10.82
2023-05-16T16:42:14.498Z,10.83
2023-05-16T16:44:42.216Z,10.77
2023-05-16T16:47:10.129Z,10.71
2023-05-16T16:49:37.829Z,10.69
2023-05-16T16:52:05.998Z,10.71
2023-05-16T16:54:33.637Z,10.68
2023-05-16T16:57:02.698Z,10.63
2023-05-16T16:59:30.368Z,10.61
2023-05-16T17:01:58.031Z,10.61
2023-05-16T17:04:25.818Z,10.54
2023-05-16T17:06:53.540Z,10.46
2023-05-16T17:09:22.075Z,10.45
2023-05-16T17:11:49.745Z,10.44
2023-05-16T17:14:18.739Z,10.40
2023-05-16T17:16:46.483Z,10.41
2023-05-16T17:19:14.187Z,10.41
2023-05-16T17:21:43.563Z,10.38
2023-05-16T17:24:11.249Z,10.37
2023-05-16T17:26:39.146Z,10.40
2023-05-16T17:29:06.834Z,10.36
2023-05-16T17:31:36.261Z,10.35
2023-05-16T17:34:03.886Z,10.37
2023-05-16T17:36:31.990Z,10.38
2023-05-16T17:38:59.670Z,10.40
2023-05-16T17:41:27.325Z,10.40
2023-05-16T17:43:54.986Z,10.36
2023-05-16T17:46:22.617Z,10.26
2023-05-16T17:48:51.624Z,10.27
2023-05-16T17:51:19.250Z,10.30
2023-05-16T17:53:46.897Z,10.30
2023-05-16T17:56:14.564Z,10.29
2023-05-16T17:58:42.568Z,10.27
2023-05-16T18:01:10.290Z,10.29
2023-05-16T18:03:38.562Z,10.24
2023-05-16T18:06:08.111Z,10.19
2023-05-16T18:08:35.923Z,10.16
2023-05-16T18:11:03.581Z,10.16
2023-05-16T18:13:31.312Z,10.14
2023-05-16T18:15:59.139Z,10.15
2023-05-16T18:18:27.255Z,10.00
2023-05-16T18:20:55.022Z,9.95
2023-05-16T18:23:24.742Z,9.95
2023-05-16T18:25:52.696Z,9.93
2023-05-16T18:28:21.480Z,9.97
2023-05-16T18:30:49.862Z,9.94
2023-05-16T18:33:17.688Z,9.89
2023-05-16T18:35:45.394Z,9.96
2023-05-16T18:38:28.134Z,9.98
2023-05-16T18:41:00.781Z,10.05
2023-05-16T18:43:28.573Z,9.98
2023-05-16T18:45:56.251Z,10.01
2023-05-16T18:48:24.027Z,9.85
2023-05-16T18:50:52.616Z,9.84
2023-05-16T18:53:20.334Z,9.72
2023-05-16T18:55:48.634Z,9.71
2023-05-16T18:58:17.767Z,9.72
2023-05-16T19:00:45.592Z,9.62
2023-05-16T19:03:13.466Z,9.58
2023-05-16T19:05:41.461Z,9.65
2023-05-16T19:08:09.186Z,9.61
2023-05-16T19:10:38.477Z,9.56
2023-05-16T19:13:08.070Z,9.63
2023-05-16T19:15:38.097Z,9.56
2023-05-16T19:18:06.835Z,9.50
2023-05-16T19:20:35.859Z,9.62
2023-05-16T19:23:04.222Z,9.53
2023-05-16T19:25:32.482Z,9.53
2023-05-16T19:28:00.166Z,9.58
2023-05-16T19:30:28.234Z,9.53
2023-05-16T19:32:57.690Z,9.57
2023-05-16T19:35:25.980Z,9.59
2023-05-16T19:37:53.870Z,9.54
2023-05-16T19:40:21.553Z,9.55
2023-05-16T19:42:49.273Z,9.57
2023-05-16T19:45:17.007Z,9.41
2023-05-16T19:47:44.773Z,9.35
2023-05-16T19:50:14.083Z,9.33
2023-05-16T19:52:41.759Z,9.39
2023-05-16T19:55:10.593Z,9.25
2023-05-16T19:57:38.568Z,9.30
2023-05-16T20:00:08.221Z,9.32
2023-05-16T20:02:36.297Z,9.33
2023-05-16T20:05:04.674Z,9.27
2023-05-16T20:07:33.710Z,9.23
2023-05-16T20:10:01.356Z,9.21
2023-05-16T20:12:28.992Z,9.23
2023-05-16T20:14:56.860Z,9.20
2023-05-16T20:17:24.559Z,9.19
2023-05-16T20:19:52.389Z,9.14
2023-05-16T20:22:21.268Z,9.19
2023-05-16T20:24:50.251Z,9.14
2023-05-16T20:27:17.913Z,9.14
2023-05-16T20:29:45.521Z,9.09
2023-05-16T20:32:13.317Z,9.11
2023-05-16T20:34:41.822Z,9.09
2023-05-16T20:37:09.595Z,9.07
2023-05-16T20:39:38.958Z,8.92
2023-05-16T20:42:10.850Z,8.87
2023-05-16T20:44:38.504Z,8.89
2023-05-16T20:47:06.301Z,8.90
2023-05-16T20:49:35.979Z,8.93
2023-05-16T20:52:03.747Z,8.82
2023-05-16T20:54:41.763Z,8.76
2023-05-16T20:57:10.841Z,8.85
2023-05-16T20:59:38.546Z,8.78
2023-05-16T21:02:09.682Z,8.73
2023-05-16T21:04:37.437Z,8.72
2023-05-16T21:07:07.484Z,8.66
2023-05-16T21:09:37.742Z,8.64
2023-05-16T21:12:06.291Z,8.62
2023-05-16T21:14:35.310Z,8.64
2023-05-16T21:17:03.167Z,8.58
2023-05-16T21:19:34.536Z,8.64
2023-05-16T21:22:03.919Z,8.60
2023-05-16T21:24:35.070Z,8.59
2023-05-16T21:27:03.288Z,8.62
2023-05-16T21:29:30.993Z,8.53
2023-05-16T21:32:00.110Z,8.51
2023-05-16T21:34:27.746Z,8.45
2023-05-16T21:36:55.621Z,8.48
2023-05-16T21:39:23.247Z,8.47
2023-05-16T21:41:51.542Z,8.42
2023-05-16T21:44:19.275Z,8.43
2023-05-16T21:46:46.935Z,8.46
2023-05-16T21:49:15.966Z,8.48
2023-05-16T21:51:43.612Z,8.46
2023-05-16T21:54:11.258Z,8.37
2023-05-16T21:56:38.968Z,8.41
2023-05-16T21:59:06.647Z,8.33
2023-05-16T22:01:34.319Z,8.35
2023-05-16T22:04:01.971Z,8.36
2023-05-16T22:06:31.045Z,8.37
2023-05-16T22:08:58.709Z,8.33
2023-05-16T22:11:26.355Z,8.27
2023-05-16T22:13:54.143Z,8.32
2023-05-16T22:16:21.887Z,8.28
2023-05-16T22:18:49.740Z,8.31
2023-05-16T22:21:17.516Z,8.28
2023-05-16T22:23:46.674Z,8.29
2023-05-16T22:26:14.306Z,8.22
2023-05-16T22:28:42.015Z,8.22
2023-05-16T22:31:09.630Z,8.19
2023-05-16T22:33:37.374Z,8.11
2023-05-16T22:36:05.504Z,8.18
2023-05-16T22:38:33.326Z,8.18
2023-05-16T22:41:02.580Z,8.14
2023-05-16T22:43:30.374Z,8.11
2023-05-16T22:45:58.303Z,8.10
2023-05-16T22:48:26.304Z,8.06
2023-05-16T22:50:54.002Z,8.06
2023-05-16T22:53:21.639Z,8.10
2023-05-16T22:55:49.321Z,8.02
2023-05-16T22:58:18.383Z,8.00
2023-05-16T23:00:47.417Z,7.97
2023-05-16T23:03:15.268Z,8.04
2023-05-16T23:05:43.016Z,7.97
2023-05-16T23:08:10.834Z,7.93
2023-05-16T23:10:38.525Z,7.98
2023-05-16T23:13:06.313Z,7.91
2023-05-16T23:15:35.299Z,7.88
2023-05-16T23:18:03.040Z,7.91
2023-05-16T23:20:30.802Z,7.87
2023-05-16T23:22:58.485Z,7.94
2023-05-16T23:25:26.482Z,7.95
2023-05-16T23:27:57.569Z,7.92
2023-05-16T23:30:25.402Z,7.98
2023-05-16T23:32:54.637Z,7.97
2023-05-16T23:35:22.607Z,7.98
2023-05-16T23:37:50.266Z,8.03
2023-05-16T23:40:18.072Z,8.03
2023-05-16T23:42:45.785Z,8.04
2023-05-16T23:45:13.539Z,8.04
2023-05-16T23:47:41.349Z,8.03
2023-05-16T23:50:11.498Z,7.93
2023-05-16T23:52:39.168Z,7.97
2023-05-16T23:55:07.724Z,7.91
2023-05-16T23:57:35.398Z,7.88
